Time;durP1;ratioP1;P1;durP2;ratioP2;P2;SDS_P1;SDS_P2;PMS_P1;PMS_P2;Temp;Humidity;BMP_temperature;BMP_pressure;BME280_temperature;BME280_humidity;BME280_pressure;Samples;Min_cycle;Max_cycle;Signal;HPM_P1;HPM_P2
2023/05/08 00:00:03;;;;;;;8.65;6.85;;;;;;;18.00;93.68;99728.41;334657;28;18017;-72
2023/05/08 00:00:17;;;;;;;9.32;6.90;;;;;;;18.02;93.74;99734.44;334385;28;16917;-72
2023/05/08 00:00:29;;;;;;;9.70;6.88;;;;;;;18.04;93.51;99732.56;337467;28;4516;-72
2023/05/08 00:00:41;;;;;;;9.40;6.90;;;;;;;18.06;93.64;99730.66;336896;28;4712;-72
2023/05/08 00:00:57;;;;;;;9.35;6.97;;;;;;;18.07;93.47;99727.06;334458;28;18150;-72
2023/05/08 00:01:10;;;;;;;8.30;6.90;;;;;;;18.07;93.60;99727.06;333464;29;17691;-72
2023/05/08 00:01:22;;;;;;;7.85;6.97;;;;;;;18.08;93.85;99734.03;333095;29;18174;-72
2023/05/08 00:01:34;;;;;;;7.65;6.88;;;;;;;18.08;93.97;99729.63;335198;29;5327;-72
2023/05/08 00:01:46;;;;;;;8.02;7.00;;;;;;;18.09;94.05;99725.19;335608;29;5458;-72
2023/05/08 00:01:58;;;;;;;8.38;7.13;;;;;;;18.09;93.82;99730.47;333072;29;18818;-72
2023/05/08 00:02:09;;;;;;;7.88;7.07;;;;;;;18.09;93.79;99726.06;335615;29;4592;-72
2023/05/08 00:02:21;;;;;;;8.23;6.97;;;;;;;18.09;93.82;99728.69;334745;28;10562;-72
2023/05/08 00:02:34;;;;;;;8.38;6.93;;;;;;;18.09;93.68;99730.47;336888;28;5336;-72
2023/05/08 00:02:46;;;;;;;8.27;7.00;;;;;;;18.09;93.62;99726.06;336908;28;4519;-72
2023/05/08 00:02:58;;;;;;;7.95;6.80;;;;;;;18.10;93.54;99734.78;333991;28;17826;-72
2023/05/08 00:03:10;;;;;;;8.10;6.85;;;;;;;18.11;93.46;99725.94;337074;28;4633;-72
2023/05/08 00:03:22;;;;;;;8.65;6.80;;;;;;;18.10;93.34;99733.00;335388;28;17939;-72
2023/05/08 00:03:35;;;;;;;8.27;6.95;;;;;;;18.12;93.52;99735.53;338280;28;4650;-72
2023/05/08 00:03:47;;;;;;;9.48;6.85;;;;;;;18.13;93.20;99726.72;335402;28;16762;-72
2023/05/08 00:04:00;;;;;;;9.20;6.50;;;;;;;18.12;93.55;99738.19;338527;28;4692;-72
2023/05/08 00:04:12;;;;;;;7.25;6.40;;;;;;;18.11;93.83;99733.84;334882;28;18103;-72
2023/05/08 00:04:27;;;;;;;8.00;6.63;;;;;;;18.13;93.72;99732.00;335735;28;16590;-72
2023/05/08 00:04:39;;;;;;;8.13;6.68;;;;;;;18.15;93.74;99735.38;338058;28;5391;-72
2023/05/08 00:04:51;;;;;;;6.93;6.22;;;;;;;18.14;93.64;99728.41;337770;28;4670;-72
2023/05/08 00:05:05;;;;;;;7.03;6.32;;;;;;;18.14;93.56;99729.22;335959;28;18058;-72
2023/05/08 00:05:18;;;;;;;7.60;6.70;;;;;;;18.17;93.90;99736.13;335460;28;17908;-72
2023/05/08 00:05:30;;;;;;;8.68;7.25;;;;;;;18.17;93.87;99733.47;338524;28;4590;-72
2023/05/08 00:05:42;;;;;;;8.20;6.78;;;;;;;18.17;93.84;99733.47;335625;28;16192;-72
2023/05/08 00:05:56;;;;;;;7.43;6.63;;;;;;;18.19;93.69;99736.00;338507;28;4691;-72
2023/05/08 00:06:08;;;;;;;8.23;7.05;;;;;;;18.19;93.69;99728.97;333949;28;18804;-72
2023/05/08 00:06:20;;;;;;;8.43;7.15;;;;;;;18.21;93.68;99732.34;338394;28;4719;-72
2023/05/08 00:06:32;;;;;;;7.88;6.97;;;;;;;18.23;93.48;99732.22;336079;28;4506;-72
2023/05/08 00:06:44;;;;;;;7.53;6.82;;;;;;;18.23;93.26;99733.09;337714;28;4663;-72
2023/05/08 00:06:56;;;;;;;7.70;6.90;;;;;;;18.23;93.13;99733.09;337668;28;9658;-72
2023/05/08 00:07:08;;;;;;;7.50;6.70;;;;;;;18.23;93.14;99726.97;336141;28;16015;-72
2023/05/08 00:07:20;;;;;;;7.88;6.72;;;;;;;18.24;92.87;99733.94;338154;28;4718;-72
2023/05/08 00:07:32;;;;;;;7.47;6.68;;;;;;;18.22;93.05;99734.03;335782;28;18238;-72
2023/05/08 00:07:44;;;;;;;7.75;6.88;;;;;;;18.21;93.08;99729.72;338066;28;4599;-72
2023/05/08 00:08:00;;;;;;;7.93;7.13;;;;;;;18.21;93.58;99734.97;338426;28;9307;-72
2023/05/08 00:08:12;;;;;;;8.07;7.00;;;;;;;18.20;93.39;99729.81;335294;28;17040;-72
2023/05/08 00:08:24;;;;;;;8.38;6.80;;;;;;;18.21;93.37;99729.72;338469;28;4623;-72
2023/05/08 00:08:36;;;;;;;8.35;6.97;;;;;;;18.20;92.97;99728.00;337079;28;5263;-72
2023/05/08 00:08:48;;;;;;;8.80;6.80;;;;;;;18.21;93.34;99734.97;334336;28;17982;-72
2023/05/08 00:09:00;;;;;;;8.85;6.80;;;;;;;18.22;93.36;99735.81;336986;28;4508;-72
2023/05/08 00:09:12;;;;;;;8.70;6.70;;;;;;;18.23;93.29;99740.13;334801;28;10416;-72
2023/05/08 00:09:24;;;;;;;8.32;6.82;;;;;;;18.21;93.59;99734.97;336794;28;4755;-72
2023/05/08 00:09:36;;;;;;;9.95;6.82;;;;;;;18.22;93.14;99731.38;337117;28;4831;-72
2023/05/08 00:09:48;;;;;;;9.32;6.93;;;;;;;18.23;93.64;99733.09;333608;28;18228;-72
2023/05/08 00:10:00;;;;;;;7.40;6.70;;;;;;;18.23;93.71;99733.09;336147;28;4585;-71
2023/05/08 00:10:12;;;;;;;7.93;6.80;;;;;;;18.24;93.83;99734.78;334145;28;18080;-70
2023/05/08 00:10:24;;;;;;;8.73;6.90;;;;;;;18.24;93.55;99734.78;335683;29;4530;-70
2023/05/08 00:10:36;;;;;;;10.57;7.07;;;;;;;18.25;93.60;99731.22;335908;28;5211;-70
2023/05/08 00:10:48;;;;;;;10.30;7.10;;;;;;;18.27;93.60;99736.34;335074;28;18266;-70
2023/05/08 00:11:00;;;;;;;10.63;6.83;;;;;;;18.28;93.63;99730.16;338519;28;4679;-70
2023/05/08 00:11:12;;;;;;;11.82;6.90;;;;;;;18.28;93.74;99730.16;335545;28;18224;-70
2023/05/08 00:11:24;;;;;;;10.15;6.85;;;;;;;18.29;93.63;99732.72;338729;28;4558;-70
2023/05/08 00:11:36;;;;;;;9.52;7.05;;;;;;;18.29;93.22;99734.47;338456;28;4684;-70
2023/05/08 00:11:48;;;;;;;9.10;6.93;;;;;;;18.29;93.30;99735.34;335497;28;18039;-70
2023/05/08 00:12:00;;;;;;;8.82;6.93;;;;;;;18.30;93.52;99734.38;338551;28;5530;-70
2023/05/08 00:12:12;;;;;;;7.55;6.80;;;;;;;18.30;93.29;99738.81;335907;28;16304;-70
2023/05/08 00:12:24;;;;;;;7.20;6.50;;;;;;;18.30;93.32;99734.38;337890;28;4717;-71
2023/05/08 00:12:36;;;;;;;7.57;6.40;;;;;;;18.31;93.42;99736.09;337909;28;5561;-70
2023/05/08 00:12:48;;;;;;;7.90;6.20;;;;;;;18.32;93.41;99727.22;333512;28;18003;-70
2023/05/08 00:13:00;;;;;;;8.52;6.32;;;;;;;18.33;93.38;99734.19;337225;28;5497;-70
2023/05/08 00:13:13;;;;;;;8.27;6.60;;;;;;;18.34;93.27;99735.88;331847;28;18802;-70
2023/05/08 00:13:27;;;;;;;8.32;6.80;;;;;;;18.35;93.15;99726.19;336946;28;4721;-70
2023/05/08 00:13:40;;;;;;;7.90;6.90;;;;;;;18.36;93.22;99728.72;334068;28;18468;-70
2023/05/08 00:13:52;;;;;;;8.13;6.90;;;;;;;18.36;93.07;99733.16;334700;28;16112;-70
2023/05/08 00:14:04;;;;;;;7.80;6.57;;;;;;;18.36;93.07;99728.72;337313;28;4705;-70
2023/05/08 00:14:16;;;;;;;8.98;6.45;;;;;;;18.38;93.34;99735.69;337627;28;4510;-70
2023/05/08 00:14:28;;;;;;;10.00;6.68;;;;;;;18.38;93.07;99727.81;332786;28;19077;-71
2023/05/08 00:14:40;;;;;;;9.63;6.72;;;;;;;18.35;93.16;99734.94;336878;28;4846;-71
2023/05/08 00:14:52;;;;;;;8.95;7.20;;;;;;;18.34;93.19;99730.59;335545;28;19130;-71
2023/05/08 00:15:05;;;;;;;7.70;6.85;;;;;;;18.36;92.86;99735.78;338109;28;5732;-71
2023/05/08 00:15:17;;;;;;;7.38;6.45;;;;;;;18.35;93.14;99732.31;335055;28;5336;-71
2023/05/08 00:15:29;;;;;;;7.47;6.30;;;;;;;18.36;93.26;99728.72;338326;28;5320;-71
2023/05/08 00:15:41;;;;;;;8.52;6.80;;;;;;;18.36;93.25;99733.16;338718;28;5227;-71
2023/05/08 00:15:53;;;;;;;7.93;6.72;;;;;;;18.35;93.35;99732.31;335704;28;18152;-71
2023/05/08 00:16:08;;;;;;;8.88;6.70;;;;;;;18.36;93.24;99727.88;338147;28;4733;-71
2023/05/08 00:16:19;;;;;;;8.77;6.38;;;;;;;18.38;93.36;99719.91;334538;28;16762;-71
2023/05/08 00:16:32;;;;;;;8.60;5.97;;;;;;;18.38;93.40;99725.16;333876;28;15936;-71
2023/05/08 00:16:44;;;;;;;7.85;5.90;;;;;;;18.38;93.38;99727.81;337412;28;5581;-71
2023/05/08 00:16:56;;;;;;;7.38;6.32;;;;;;;18.39;93.28;99726.84;334506;28;10905;-71
2023/05/08 00:17:12;;;;;;;8.27;6.78;;;;;;;18.40;93.24;99731.19;336815;28;5449;-71
2023/05/08 00:17:24;;;;;;;7.85;6.85;;;;;;;18.38;93.33;99728.63;333677;28;18303;-72
2023/05/08 00:17:36;;;;;;;8.25;6.70;;;;;;;18.38;93.32;99726.00;338693;28;4553;-72
2023/05/08 00:17:48;;;;;;;7.93;6.88;;;;;;;18.38;93.23;99731.28;335819;28;19219;-71
2023/05/08 00:18:00;;;;;;;7.97;6.80;;;;;;;18.36;93.16;99728.72;336384;28;4609;-71
2023/05/08 00:18:12;;;;;;;7.88;6.55;;;;;;;18.38;93.16;99730.44;331302;28;18929;-71
2023/05/08 00:18:25;;;;;;;8.63;6.65;;;;;;;18.39;93.10;99732.09;338734;28;4675;-71
2023/05/08 00:18:37;;;;;;;8.15;6.60;;;;;;;18.39;93.04;99729.47;334684;28;4779;-71
2023/05/08 00:18:52;;;;;;;7.63;6.47;;;;;;;18.39;92.94;99732.09;338857;28;5572;-71
2023/05/08 00:19:04;;;;;;;7.30;6.20;;;;;;;18.40;92.96;99728.53;334506;28;16082;-71
2023/05/08 00:19:16;;;;;;;9.40;6.22;;;;;;;18.41;93.08;99724.94;334139;28;5223;-71
2023/05/08 00:19:28;;;;;;;10.85;6.45;;;;;;;18.41;93.02;99727.59;334500;28;18200;-71
2023/05/08 00:19:40;;;;;;;8.77;6.53;;;;;;;18.42;93.06;99726.66;333928;28;5615;-71
2023/05/08 00:19:54;;;;;;;8.77;6.60;;;;;;;18.43;93.01;99733.59;333294;29;18335;-71
2023/05/08 00:20:07;;;;;;;8.38;6.78;;;;;;;18.42;92.83;99724.03;336051;29;4513;-72
2023/05/08 00:20:19;;;;;;;8.13;6.88;;;;;;;18.41;92.76;99724.94;333522;29;17932;-71
2023/05/08 00:20:33;;;;;;;8.18;6.78;;;;;;;18.42;92.85;99729.28;335562;29;4523;-72
2023/05/08 00:20:45;;;;;;;9.10;6.63;;;;;;;18.42;92.88;99731.91;333298;29;18935;-72
2023/05/08 00:20:57;;;;;;;8.35;6.70;;;;;;;18.43;92.82;99728.34;332996;29;5544;-72
2023/05/08 00:21:08;;;;;;;7.88;6.70;;;;;;;18.42;92.74;99726.66;335938;29;4658;-72
2023/05/08 00:21:20;;;;;;;9.02;6.53;;;;;;;18.43;92.92;99730.97;335351;29;4607;-72
2023/05/08 00:21:32;;;;;;;9.70;6.93;;;;;;;18.43;92.70;99730.97;332059;29;18067;-72
2023/05/08 00:21:44;;;;;;;9.70;7.07;;;;;;;18.43;92.55;99723.94;336602;28;4736;-72
2023/05/08 00:21:56;;;;;;;7.90;6.82;;;;;;;18.44;92.56;99732.66;337844;28;4686;-71
2023/05/08 00:22:08;;;;;;;8.57;6.63;;;;;;;18.44;92.55;99727.41;332103;28;18353;-71
2023/05/08 00:22:20;;;;;;;8.48;6.63;;;;;;;18.46;92.57;99733.41;337956;28;4542;-71
2023/05/08 00:22:32;;;;;;;9.30;6.68;;;;;;;18.46;92.41;99733.41;335249;28;16313;-71
2023/05/08 00:22:46;;;;;;;10.30;6.57;;;;;;;18.46;92.51;99733.41;338345;28;5336;-71
2023/05/08 00:22:58;;;;;;;8.50;6.70;;;;;;;18.46;92.53;99728.16;335850;28;18293;-71
2023/05/08 00:23:10;;;;;;;8.73;6.75;;;;;;;18.47;92.47;99727.19;339057;28;4656;-71
2023/05/08 00:23:22;;;;;;;8.05;6.78;;;;;;;18.48;92.57;99726.25;335671;28;15767;-71
2023/05/08 00:23:34;;;;;;;7.28;6.45;;;;;;;18.47;92.52;99724.56;338022;28;5301;-71
2023/05/08 00:23:47;;;;;;;6.97;6.25;;;;;;;18.47;92.50;99730.69;334619;28;10515;-71
2023/05/08 00:23:59;;;;;;;7.30;6.45;;;;;;;18.47;92.48;99724.56;337678;28;4619;-71
2023/05/08 00:24:11;;;;;;;7.40;6.60;;;;;;;18.47;92.52;99730.69;336439;28;4532;-71
2023/05/08 00:24:23;;;;;;;7.80;6.25;;;;;;;18.48;92.40;99732.38;333711;28;17954;-72
2023/05/08 00:24:35;;;;;;;7.97;6.15;;;;;;;18.49;92.41;99733.19;336298;28;4747;-72
2023/05/08 00:24:47;;;;;;;7.22;6.30;;;;;;;18.49;92.60;99730.56;334475;28;4723;-72
2023/05/08 00:24:59;;;;;;;8.32;6.28;;;;;;;18.50;92.64;99725.22;337289;28;5099;-72
2023/05/08 00:25:11;;;;;;;8.30;6.25;;;;;;;18.51;92.29;99726.06;333312;28;5823;-72
2023/05/08 00:25:23;;;;;;;8.43;6.35;;;;;;;18.52;92.56;99733.03;334633;28;17983;-72
2023/05/08 00:25:35;;;;;;;8.57;6.60;;;;;;;18.52;92.34;99733.03;337449;28;5565;-72
2023/05/08 00:25:47;;;;;;;8.98;6.55;;;;;;;18.53;92.39;99732.06;337356;28;4624;-72
2023/05/08 00:25:59;;;;;;;7.47;6.25;;;;;;;18.52;92.25;99736.50;335706;28;18169;-72
2023/05/08 00:26:11;;;;;;;7.30;6.13;;;;;;;18.53;92.35;99729.44;328324;28;5449;-72
2023/05/08 00:26:24;;;;;;;7.50;6.40;;;;;;;18.52;92.15;99733.03;334573;28;18195;-72
2023/05/08 00:26:36;;;;;;;9.43;6.55;;;;;;;18.54;92.05;99733.75;333017;28;4693;-72
2023/05/08 00:26:49;;;;;;;8.95;6.47;;;;;;;18.53;92.19;99734.69;334042;28;17018;-72
2023/05/08 00:27:01;;;;;;;8.05;6.57;;;;;;;18.51;92.47;99732.19;337658;28;5227;-72
2023/05/08 00:27:14;;;;;;;7.07;6.38;;;;;;;18.51;92.41;99726.06;332558;28;18215;-72
2023/05/08 00:27:26;;;;;;;7.32;6.40;;;;;;;18.52;92.29;99730.38;335000;29;5393;-72
2023/05/08 00:27:38;;;;;;;7.82;6.40;;;;;;;18.53;92.27;99724.16;331874;29;18454;-72
2023/05/08 00:27:50;;;;;;;7.97;6.35;;;;;;;18.53;92.14;99734.69;333036;29;5309;-72
2023/05/08 00:28:02;;;;;;;7.65;6.40;;;;;;;18.53;92.14;99729.44;331946;29;9595;-72
2023/05/08 00:28:14;;;;;;;7.75;6.60;;;;;;;18.53;92.12;99729.44;332427;29;16613;-72
2023/05/08 00:28:28;;;;;;;8.52;6.57;;;;;;;18.54;92.20;99731.97;333156;28;18138;-72
2023/05/08 00:28:40;;;;;;;8.18;6.57;;;;;;;18.55;92.14;99727.53;335381;28;5646;-72
2023/05/08 00:28:52;;;;;;;8.30;6.70;;;;;;;18.55;92.00;99735.44;333409;29;13102;-72
2023/05/08 00:29:04;;;;;;;7.75;6.63;;;;;;;18.55;92.22;99728.41;335895;28;4599;-72
2023/05/08 00:29:17;;;;;;;8.63;6.82;;;;;;;18.56;92.05;99734.50;333376;28;18051;-72
2023/05/08 00:29:29;;;;;;;8.13;7.05;;;;;;;18.56;91.98;99730.09;338150;28;4554;-72
2023/05/08 00:29:42;;;;;;;7.90;6.75;;;;;;;18.56;92.09;99729.25;338922;28;4495;-72
2023/05/08 00:29:53;;;;;;;9.10;6.60;;;;;;;18.57;91.97;99733.56;334208;28;18747;-72
2023/05/08 00:30:07;;;;;;;8.70;6.50;;;;;;;18.56;92.06;99734.50;337352;28;4885;-72
2023/05/08 00:30:20;;;;;;;7.32;6.55;;;;;;;18.57;92.05;99730.91;333795;28;17944;-72
2023/05/08 00:30:32;;;;;;;7.20;6.50;;;;;;;18.58;92.03;99732.63;328063;28;5992;-72
2023/05/08 00:30:44;;;;;;;7.78;6.80;;;;;;;18.60;91.94;99737.78;335154;28;18332;-72
2023/05/08 00:31:01;;;;;;;8.38;6.93;;;;;;;18.59;91.75;99726.41;337334;28;4739;-72
2023/05/08 00:31:13;;;;;;;8.88;6.90;;;;;;;18.60;91.76;99737.78;334276;28;18043;-72
2023/05/08 00:31:26;;;;;;;9.60;6.88;;;;;;;18.59;91.71;99739.56;336184;28;5078;-70
2023/05/08 00:31:38;;;;;;;10.25;6.72;;;;;;;18.59;91.63;99734.28;332902;29;9931;-70
2023/05/08 00:31:50;;;;;;;10.63;6.90;;;;;;;18.61;91.77;99736.84;335959;28;4570;-70
2023/05/08 00:32:02;;;;;;;10.80;7.07;;;;;;;18.59;91.80;99729.03;332792;29;10905;-70
2023/05/08 00:32:14;;;;;;;10.55;7.28;;;;;;;18.58;91.64;99729.16;335874;28;4578;-70
2023/05/08 00:32:26;;;;;;;9.32;6.93;;;;;;;18.59;91.58;99739.56;337000;28;4718;-70
2023/05/08 00:32:38;;;;;;;7.85;6.40;;;;;;;18.58;91.56;99732.63;333777;28;18483;-70
2023/05/08 00:32:50;;;;;;;8.15;5.93;;;;;;;18.59;91.72;99734.28;337281;28;4586;-70
2023/05/08 00:33:03;;;;;;;8.05;6.20;;;;;;;18.60;91.54;99738.63;334264;28;17860;-70
2023/05/08 00:33:15;;;;;;;8.75;6.40;;;;;;;18.60;91.49;99736.00;333189;28;5477;-70
2023/05/08 00:33:27;;;;;;;10.00;6.60;;;;;;;18.60;91.62;99733.38;334768;28;4550;-71
2023/05/08 00:33:40;;;;;;;9.27;6.50;;;;;;;18.58;91.16;99737.88;337550;28;5218;-70
2023/05/08 00:33:52;;;;;;;8.95;6.38;;;;;;;18.58;91.44;99737.88;337481;28;7678;-70
2023/05/08 00:34:04;;;;;;;7.30;6.20;;;;;;;18.57;91.25;99738.81;334760;28;18104;-70
2023/05/08 00:34:16;;;;;;;7.85;6.47;;;;;;;18.57;91.19;99736.19;338125;28;4728;-70
2023/05/08 00:34:28;;;;;;;8.95;6.82;;;;;;;18.56;90.97;99739.78;335009;28;18450;-71
2023/05/08 00:34:40;;;;;;;9.00;6.90;;;;;;;18.55;91.05;99738.94;337053;28;4787;-71
2023/05/08 00:34:52;;;;;;;9.43;6.88;;;;;;;18.54;91.43;99736.41;337992;28;4625;-71
2023/05/08 00:35:04;;;;;;;8.77;6.47;;;;;;;18.55;91.14;99738.06;334568;28;17265;-71
2023/05/08 00:35:17;;;;;;;7.40;6.22;;;;;;;18.55;91.25;99738.06;336306;28;4840;-71
2023/05/08 00:35:29;;;;;;;7.20;6.50;;;;;;;18.56;91.33;99739.78;333083;28;16462;-71
2023/05/08 00:35:41;;;;;;;7.70;6.90;;;;;;;18.54;91.50;99734.59;335162;29;4876;-71
2023/05/08 00:36:04;;;;;;;8.02;6.63;;;;;;;18.55;91.58;99735.44;331567;29;18381;-71
2023/05/08 00:36:16;;;;;;;9.95;6.85;;;;;;;18.52;91.39;99739.13;332409;29;16420;-71
2023/05/08 00:36:28;;;;;;;10.20;6.85;;;;;;;18.51;91.40;99732.19;327398;29;17774;-71
2023/05/08 00:36:40;;;;;;;9.82;6.75;;;;;;;18.50;91.28;99737.53;335209;29;5586;-71
2023/05/08 00:36:52;;;;;;;10.48;7.03;;;;;;;18.51;91.23;99736.56;335867;29;5435;-71
2023/05/08 00:37:04;;;;;;;8.55;6.93;;;;;;;18.50;91.31;99741.00;332799;28;18012;-71
2023/05/08 00:37:16;;;;;;;8.82;7.10;;;;;;;18.52;91.08;99743.53;336331;28;4583;-70
2023/05/08 00:37:28;;;;;;;8.65;6.90;;;;;;;18.51;91.01;99742.72;333498;28;4629;-71
2023/05/08 00:37:40;;;;;;;8.52;6.80;;;;;;;18.51;90.99;99736.56;339364;28;4746;-70
2023/05/08 00:37:52;;;;;;;8.95;6.70;;;;;;;18.50;91.08;99741.00;335884;28;16636;-70
2023/05/08 00:38:04;;;;;;;10.38;7.00;;;;;;;18.49;91.07;99734.06;338632;28;4584;-70
2023/05/08 00:38:16;;;;;;;9.68;6.82;;;;;;;18.50;91.15;99729.66;338358;28;5110;-70
2023/05/08 00:38:32;;;;;;;9.30;6.65;;;;;;;18.50;91.13;99741.00;335496;28;18116;-71
2023/05/08 00:38:47;;;;;;;9.73;6.90;;;;;;;18.49;91.24;99739.34;335184;28;17647;-71
2023/05/08 00:38:59;;;;;;;9.27;6.88;;;;;;;18.51;91.36;99747.09;335736;28;17964;-71
2023/05/08 00:39:11;;;;;;;8.13;6.85;;;;;;;18.51;91.36;99741.84;338161;28;4693;-71
2023/05/08 00:39:23;;;;;;;7.78;6.90;;;;;;;18.53;91.19;99739.97;335228;28;5289;-71
2023/05/08 00:39:35;;;;;;;8.20;7.03;;;;;;;18.51;90.96;99736.56;336839;28;4586;-71
2023/05/08 00:39:47;;;;;;;9.00;7.05;;;;;;;18.51;90.96;99737.44;335050;28;4554;-71
2023/05/08 00:39:59;;;;;;;10.82;7.22;;;;;;;18.52;90.96;99740.91;337256;28;5334;-71
2023/05/08 00:40:11;;;;;;;9.95;7.13;;;;;;;18.52;90.72;99738.28;337345;28;4565;-71
2023/05/08 00:40:24;;;;;;;7.97;7.05;;;;;;;18.52;90.64;99744.38;335636;28;17954;-71
2023/05/08 00:40:36;;;;;;;8.00;7.20;;;;;;;18.53;90.69;99730.28;335769;28;5491;-71
2023/05/08 00:40:49;;;;;;;7.90;7.10;;;;;;;18.53;90.72;99743.47;334464;28;18571;-71
2023/05/08 00:41:01;;;;;;;8.07;7.05;;;;;;;18.50;90.85;99741.00;336719;28;4962;-71
2023/05/08 00:41:14;;;;;;;8.70;7.10;;;;;;;18.50;91.21;99740.16;333411;28;19411;-71
2023/05/08 00:41:26;;;;;;;8.55;6.88;;;;;;;18.44;91.42;99737.94;337041;28;5168;-71
2023/05/08 00:41:41;;;;;;;9.10;6.80;;;;;;;18.41;91.57;99743.38;332995;29;18224;-71
2023/05/08 00:41:53;;;;;;;9.57;6.97;;;;;;;18.40;91.61;99739.06;332999;29;17954;-71
2023/05/08 00:42:05;;;;;;;8.98;7.05;;;;;;;18.42;91.59;99747.72;336130;29;5710;-72
2023/05/08 00:42:17;;;;;;;8.95;6.97;;;;;;;18.40;91.36;99739.91;336610;28;5156;-71
2023/05/08 00:42:29;;;;;;;7.75;6.95;;;;;;;18.42;91.17;99737.19;333062;28;18145;-71
2023/05/08 00:42:41;;;;;;;8.95;7.10;;;;;;;18.42;91.36;99747.72;336874;28;4593;-71
2023/05/08 00:42:53;;;;;;;10.18;7.20;;;;;;;18.41;91.25;99735.47;334360;28;16147;-71
2023/05/08 00:43:04;;;;;;;9.90;6.95;;;;;;;18.42;91.31;99738.03;336344;28;4560;-71
2023/05/08 00:43:16;;;;;;;9.82;7.20;;;;;;;18.43;91.11;99744.13;336519;28;5333;-71
2023/05/08 00:43:28;;;;;;;8.85;7.57;;;;;;;18.43;91.01;99744.13;334176;28;4851;-71
2023/05/08 00:43:40;;;;;;;8.55;7.65;;;;;;;18.42;91.10;99737.19;336834;28;4632;-72
2023/05/08 00:43:52;;;;;;;8.10;7.15;;;;;;;18.41;91.02;99744.25;334515;28;10119;-72
2023/05/08 00:44:04;;;;;;;8.32;7.10;;;;;;;18.39;91.13;99746.13;337416;28;4675;-72
2023/05/08 00:44:16;;;;;;;8.63;7.38;;;;;;;18.37;90.98;99740.09;336308;28;4565;-72
2023/05/08 00:44:28;;;;;;;8.10;7.30;;;;;;;18.34;90.81;99741.13;330963;28;17929;-72
2023/05/08 00:44:40;;;;;;;8.80;7.43;;;;;;;18.36;90.91;99735.78;335613;28;5496;-72
2023/05/08 00:44:52;;;;;;;9.45;7.80;;;;;;;18.35;90.86;99748.09;334123;28;10472;-72
2023/05/08 00:45:05;;;;;;;9.73;7.95;;;;;;;18.33;91.00;99739.47;338958;28;5329;-72
2023/05/08 00:45:17;;;;;;;9.25;7.60;;;;;;;18.34;90.97;99735.88;337527;28;4624;-72
2023/05/08 00:45:35;;;;;;;9.10;7.70;;;;;;;18.34;91.12;99746.41;335552;28;16878;-72
2023/05/08 00:45:47;;;;;;;9.60;7.85;;;;;;;18.29;91.09;99740.59;329841;28;16954;-72
2023/05/08 00:46:00;;;;;;;10.32;7.47;;;;;;;18.26;91.21;99742.56;338364;28;4799;-72
2023/05/08 00:46:12;;;;;;;9.02;7.40;;;;;;;18.24;91.47;99744.47;335118;28;6067;-72
2023/05/08 00:46:24;;;;;;;8.60;7.50;;;;;;;18.24;91.41;99747.94;338027;28;5548;-72
2023/05/08 00:46:37;;;;;;;8.00;7.20;;;;;;;18.26;91.15;99742.56;338657;28;5367;-72
2023/05/08 00:46:50;;;;;;;8.15;7.13;;;;;;;18.26;91.34;99743.41;334859;28;18247;-72
2023/05/08 00:47:02;;;;;;;9.80;7.20;;;;;;;18.28;91.25;99736.25;335641;28;10219;-72
2023/05/08 00:47:15;;;;;;;10.15;7.50;;;;;;;18.29;91.35;99742.38;337067;28;4522;-72
2023/05/08 00:47:32;;;;;;;9.10;7.47;;;;;;;18.25;91.45;99741.75;336844;28;10041;-72
2023/05/08 00:47:44;;;;;;;8.93;7.32;;;;;;;18.26;91.52;99747.84;335684;28;17831;-72
2023/05/08 00:47:56;;;;;;;9.30;7.60;;;;;;;18.26;91.58;99738.16;336823;28;5471;-72
2023/05/08 00:48:08;;;;;;;9.18;7.72;;;;;;;18.26;91.43;99748.66;330847;28;18249;-72
2023/05/08 00:48:22;;;;;;;8.77;7.60;;;;;;;18.26;91.49;99743.41;338515;28;4475;-72
2023/05/08 00:48:36;;;;;;;8.13;7.28;;;;;;;18.27;91.61;99745.13;335231;28;18182;-72
2023/05/08 00:48:49;;;;;;;8.00;7.20;;;;;;;18.27;91.32;99742.47;336193;28;17990;-72
2023/05/08 00:49:03;;;;;;;8.57;7.32;;;;;;;18.28;91.38;99741.53;336700;28;4667;-72
2023/05/08 00:49:15;;;;;;;9.95;7.57;;;;;;;18.29;91.38;99743.22;335080;28;17682;-72
2023/05/08 00:49:27;;;;;;;9.93;7.65;;;;;;;18.28;91.63;99738.91;336992;28;10956;-71
2023/05/08 00:49:39;;;;;;;8.15;7.35;;;;;;;18.24;91.41;99742.66;330352;28;18711;-72
2023/05/08 00:49:52;;;;;;;8.63;7.72;;;;;;;18.24;91.46;99740.03;337187;28;6833;-72
2023/05/08 00:50:04;;;;;;;8.80;7.90;;;;;;;18.24;91.45;99742.66;334812;28;18227;-72
2023/05/08 00:50:17;;;;;;;8.35;7.45;;;;;;;18.24;91.67;99745.28;336986;28;4570;-72
2023/05/08 00:50:31;;;;;;;8.23;7.40;;;;;;;18.22;91.65;99749.81;332987;28;18321;-72
2023/05/08 00:50:43;;;;;;;9.20;7.45;;;;;;;18.22;91.75;99741.91;333460;28;18013;-72
2023/05/08 00:50:57;;;;;;;9.80;7.40;;;;;;;18.21;91.80;99745.50;337456;28;4568;-72
2023/05/08 00:51:10;;;;;;;9.90;7.40;;;;;;;18.12;91.99;99746.91;333600;28;18393;-72
2023/05/08 00:51:22;;;;;;;9.30;7.45;;;;;;;18.02;92.18;99742.31;336609;28;4580;-70
2023/05/08 00:51:34;;;;;;;9.07;7.25;;;;;;;18.04;92.85;99733.38;334193;28;19366;-70
2023/05/08 00:51:49;;;;;;;8.35;7.20;;;;;;;18.08;92.90;99744.56;337527;28;4734;-72
2023/05/08 00:52:03;;;;;;;9.18;7.65;;;;;;;18.12;92.72;99746.06;334684;28;19144;-72
2023/05/08 00:52:16;;;;;;;9.60;7.93;;;;;;;18.16;92.68;99742.31;334552;28;18095;-72
2023/05/08 00:52:32;;;;;;;9.32;7.50;;;;;;;18.17;92.93;99744.00;334434;28;19044;-72
2023/05/08 00:52:45;;;;;;;8.90;7.40;;;;;;;18.15;92.49;99743.25;334059;28;16296;-72
2023/05/08 00:52:59;;;;;;;9.63;7.43;;;;;;;18.13;92.65;99743.34;335861;28;4736;-72
2023/05/08 00:53:11;;;;;;;10.10;7.55;;;;;;;18.15;92.57;99740.63;334704;28;17935;-72
2023/05/08 00:53:26;;;;;;;10.02;7.57;;;;;;;18.16;92.39;99747.56;335513;28;18282;-72
2023/05/08 00:53:41;;;;;;;9.60;7.45;;;;;;;18.19;92.63;99742.13;335987;28;17042;-72
2023/05/08 00:53:54;;;;;;;8.40;7.60;;;;;;;18.19;92.54;99742.13;335300;28;18149;-72
2023/05/08 00:54:06;;;;;;;9.05;7.70;;;;;;;18.20;92.47;99743.78;337029;28;5445;-70
2023/05/08 00:54:19;;;;;;;10.02;7.70;;;;;;;18.18;92.73;99748.31;335151;28;16473;-70
2023/05/08 00:54:31;;;;;;;10.00;7.43;;;;;;;18.18;92.71;99743.03;338323;28;5501;-70
2023/05/08 00:54:44;;;;;;;9.57;7.40;;;;;;;18.19;92.68;99742.13;336001;28;16394;-70
2023/05/08 00:54:56;;;;;;;8.90;7.30;;;;;;;18.17;92.89;99747.47;338912;28;4501;-70
2023/05/08 00:55:08;;;;;;;9.07;7.30;;;;;;;18.13;92.69;99745.13;335619;28;11092;-70
2023/05/08 00:55:20;;;;;;;9.32;7.22;;;;;;;18.15;92.38;99745.88;338634;28;4634;-70
2023/05/08 00:55:32;;;;;;;8.95;7.53;;;;;;;18.12;93.02;99748.69;338748;28;5109;-70
2023/05/08 00:55:45;;;;;;;9.82;7.40;;;;;;;18.14;93.06;99744.19;334066;28;17181;-70
2023/05/08 00:55:58;;;;;;;11.13;7.60;;;;;;;18.13;93.26;99747.78;337341;28;5256;-70
2023/05/08 00:56:14;;;;;;;11.43;8.00;;;;;;;18.13;93.11;99743.34;334940;28;17832;-70
2023/05/08 00:56:27;;;;;;;10.55;8.00;;;;;;;18.11;92.99;99749.63;334789;28;19649;-70
2023/05/08 00:56:40;;;;;;;10.60;8.07;;;;;;;18.11;93.39;99744.34;335338;28;18016;-71
2023/05/08 00:56:52;;;;;;;10.43;8.23;;;;;;;18.10;92.92;99743.53;338594;28;4650;-70
2023/05/08 00:57:07;;;;;;;10.75;8.52;;;;;;;18.07;93.17;99745.50;335419;28;18096;-70
2023/05/08 00:57:21;;;;;;;10.05;8.07;;;;;;;18.07;92.93;99749.00;334666;28;18109;-70
2023/05/08 00:57:34;;;;;;;8.88;7.55;;;;;;;18.07;92.95;99745.50;334789;28;9804;-70
2023/05/08 00:57:47;;;;;;;9.75;7.60;;;;;;;18.07;93.05;99748.13;337306;28;5388;-71
2023/05/08 00:57:59;;;;;;;9.57;7.57;;;;;;;18.08;93.24;99752.47;334608;28;18075;-70
2023/05/08 00:58:12;;;;;;;9.07;7.55;;;;;;;18.07;93.27;99748.13;337470;28;4794;-70
2023/05/08 00:58:26;;;;;;;9.45;7.55;;;;;;;18.05;92.92;99744.75;333201;29;19055;-70
2023/05/08 00:58:39;;;;;;;9.25;7.65;;;;;;;18.07;93.20;99749.00;336429;28;10521;-70
2023/05/08 00:58:52;;;;;;;9.93;7.60;;;;;;;18.05;93.37;99744.75;334291;28;18626;-70
2023/05/08 00:59:08;;;;;;;9.45;7.60;;;;;;;18.08;93.40;99749.81;334672;28;17840;-70
2023/05/08 00:59:23;;;;;;;10.38;7.45;;;;;;;18.09;93.14;99754.13;334425;28;18099;-71
2023/05/08 00:59:36;;;;;;;9.38;7.18;;;;;;;18.08;93.25;99745.41;334251;28;17905;-72
2023/05/08 00:59:49;;;;;;;9.10;7.50;;;;;;;18.12;92.98;99746.06;337008;28;5266;-72
2023/05/08 01:00:04;;;;;;;9.00;7.85;;;;;;;18.12;93.32;99748.69;334373;28;18005;-72
2023/05/08 01:00:17;;;;;;;9.23;7.70;;;;;;;18.10;93.07;99740.88;335557;28;17808;-72